sensor_id;sensor_type;location;lat;lon;timestamp;P1;durP1;ratioP1;P2;durP2;ratioP2
47305;SDS011;33043;48.390;11.734;2022-07-23T04:02:08;15.90;;;11.75;;
47305;SDS011;33043;48.390;11.734;2022-07-23T04:04:34;21.50;;;10.57;;
47305;SDS011;33043;48.390;11.734;2022-07-23T04:07:01;21.27;;;10.63;;
47305;SDS011;33043;48.390;11.734;2022-07-23T04:09:27;22.52;;;10.43;;
47305;SDS011;33043;48.390;11.734;2022-07-23T04:11:53;22.17;;;10.45;;
47305;SDS011;33043;48.390;11.734;2022-07-23T04:14:19;17.73;;;11.57;;
47305;SDS011;33043;48.390;11.734;2022-07-23T04:16:46;19.37;;;10.55;;
47305;SDS011;33043;48.390;11.734;2022-07-23T04:19:12;17.87;;;9.90;;
47305;SDS011;33043;48.390;11.734;2022-07-23T04:21:38;15.18;;;9.82;;
47305;SDS011;33043;48.390;11.734;2022-07-23T04:24:04;17.87;;;10.55;;
47305;SDS011;33043;48.390;11.734;2022-07-23T04:26:31;15.52;;;10.43;;
47305;SDS011;33043;48.390;11.734;2022-07-23T04:28:57;15.05;;;9.85;;
47305;SDS011;33043;48.390;11.734;2022-07-23T04:31:23;15.88;;;10.32;;
47305;SDS011;33043;48.390;11.734;2022-07-23T04:33:50;17.10;;;10.88;;
47305;SDS011;33043;48.390;11.734;2022-07-23T04:36:16;15.30;;;10.02;;
47305;SDS011;33043;48.390;11.734;2022-07-23T04:38:42;13.18;;;10.02;;
47305;SDS011;33043;48.390;11.734;2022-07-23T04:41:08;14.57;;;9.75;;
47305;SDS011;33043;48.390;11.734;2022-07-23T04:43:35;17.02;;;10.52;;
47305;SDS011;33043;48.390;11.734;2022-07-23T04:46:01;12.60;;;9.18;;
47305;SDS011;33043;48.390;11.734;2022-07-23T04:48:27;18.30;;;9.80;;
47305;SDS011;33043;48.390;11.734;2022-07-23T04:50:54;13.02;;;9.88;;
47305;SDS011;33043;48.390;11.734;2022-07-23T04:53:20;17.02;;;9.00;;
47305;SDS011;33043;48.390;11.734;2022-07-23T04:55:46;13.35;;;9.73;;
47305;SDS011;33043;48.390;11.734;2022-07-23T04:58:12;13.88;;;9.73;;
47305;SDS011;33043;48.390;11.734;2022-07-23T05:00:39;15.77;;;9.32;;
47305;SDS011;33043;48.390;11.734;2022-07-23T05:03:05;18.27;;;10.15;;
47305;SDS011;33043;48.390;11.734;2022-07-23T05:05:31;14.23;;;10.18;;
47305;SDS011;33043;48.390;11.734;2022-07-23T05:07:57;17.30;;;9.73;;
47305;SDS011;33043;48.390;11.734;2022-07-23T05:10:24;16.52;;;9.77;;
47305;SDS011;33043;48.390;11.734;2022-07-23T05:12:50;12.88;;;9.27;;
47305;SDS011;33043;48.390;11.734;2022-07-23T05:15:16;11.30;;;9.18;;
47305;SDS011;33043;48.390;11.734;2022-07-23T05:17:42;13.45;;;9.68;;
47305;SDS011;33043;48.390;11.734;2022-07-23T05:20:09;11.00;;;9.80;;
47305;SDS011;33043;48.390;11.734;2022-07-23T05:22:35;11.12;;;9.38;;
47305;SDS011;33043;48.390;11.734;2022-07-23T05:25:01;13.98;;;9.02;;
47305;SDS011;33043;48.390;11.734;2022-07-23T05:27:28;18.70;;;9.02;;
47305;SDS011;33043;48.390;11.734;2022-07-23T05:29:54;15.52;;;10.32;;
47305;SDS011;33043;48.390;11.734;2022-07-23T05:32:20;12.93;;;9.93;;
47305;SDS011;33043;48.390;11.734;2022-07-23T05:34:46;16.58;;;11.38;;
47305;SDS011;33043;48.390;11.734;2022-07-23T05:37:13;12.70;;;8.77;;
47305;SDS011;33043;48.390;11.734;2022-07-23T05:39:39;13.65;;;9.60;;
47305;SDS011;33043;48.390;11.734;2022-07-23T05:42:05;12.52;;;9.07;;
47305;SDS011;33043;48.390;11.734;2022-07-23T05:44:32;13.68;;;10.07;;
47305;SDS011;33043;48.390;11.734;2022-07-23T05:46:58;14.18;;;9.35;;
47305;SDS011;33043;48.390;11.734;2022-07-23T05:49:24;10.73;;;8.93;;
47305;SDS011;33043;48.390;11.734;2022-07-23T05:51:50;11.45;;;9.27;;
47305;SDS011;33043;48.390;11.734;2022-07-23T05:54:17;9.50;;;8.50;;
47305;SDS011;33043;48.390;11.734;2022-07-23T05:56:43;13.62;;;9.40;;
47305;SDS011;33043;48.390;11.734;2022-07-23T05:59:09;12.40;;;9.90;;
47305;SDS011;33043;48.390;11.734;2022-07-23T06:01:38;12.32;;;9.88;;
47305;SDS011;33043;48.390;11.734;2022-07-23T06:04:04;14.10;;;9.75;;
47305;SDS011;33043;48.390;11.734;2022-07-23T06:06:30;14.00;;;9.95;;
47305;SDS011;33043;48.390;11.734;2022-07-23T06:08:56;21.55;;;9.23;;
47305;SDS011;33043;48.390;11.734;2022-07-23T06:11:23;10.02;;;8.43;;
47305;SDS011;33043;48.390;11.734;2022-07-23T06:13:49;12.55;;;8.68;;
47305;SDS011;33043;48.390;11.734;2022-07-23T06:16:15;13.25;;;7.75;;
47305;SDS011;33043;48.390;11.734;2022-07-23T06:18:41;9.95;;;8.45;;
47305;SDS011;33043;48.390;11.734;2022-07-23T06:21:08;13.38;;;8.60;;
47305;SDS011;33043;48.390;11.734;2022-07-23T06:23:35;10.63;;;8.52;;
47305;SDS011;33043;48.390;11.734;2022-07-23T06:26:01;11.63;;;8.57;;
47305;SDS011;33043;48.390;11.734;2022-07-23T06:28:27;13.18;;;8.85;;
47305;SDS011;33043;48.390;11.734;2022-07-23T06:30:53;11.88;;;8.43;;
47305;SDS011;33043;48.390;11.734;2022-07-23T06:33:20;13.05;;;9.05;;
47305;SDS011;33043;48.390;11.734;2022-07-23T06:35:46;13.90;;;9.38;;
47305;SDS011;33043;48.390;11.734;2022-07-23T06:38:12;13.70;;;8.52;;
47305;SDS011;33043;48.390;11.734;2022-07-23T06:40:38;11.82;;;9.48;;
47305;SDS011;33043;48.390;11.734;2022-07-23T06:43:05;13.75;;;9.50;;
47305;SDS011;33043;48.390;11.734;2022-07-23T06:45:31;19.90;;;10.98;;
47305;SDS011;33043;48.390;11.734;2022-07-23T06:47:57;12.80;;;9.38;;
47305;SDS011;33043;48.390;11.734;2022-07-23T06:50:24;14.15;;;9.85;;
47305;SDS011;33043;48.390;11.734;2022-07-23T06:52:50;21.65;;;9.75;;
47305;SDS011;33043;48.390;11.734;2022-07-23T06:55:17;15.90;;;9.20;;
47305;SDS011;33043;48.390;11.734;2022-07-23T06:57:43;9.63;;;8.45;;
47305;SDS011;33043;48.390;11.734;2022-07-23T07:00:09;10.77;;;8.75;;
47305;SDS011;33043;48.390;11.734;2022-07-23T07:02:36;9.13;;;8.20;;
47305;SDS011;33043;48.390;11.734;2022-07-23T07:05:02;13.57;;;8.68;;
47305;SDS011;33043;48.390;11.734;2022-07-23T07:07:29;19.23;;;8.48;;
47305;SDS011;33043;48.390;11.734;2022-07-23T07:09:55;11.65;;;7.62;;
47305;SDS011;33043;48.390;11.734;2022-07-23T07:12:21;11.60;;;8.68;;
47305;SDS011;33043;48.390;11.734;2022-07-23T07:14:47;16.12;;;7.85;;
47305;SDS011;33043;48.390;11.734;2022-07-23T07:17:14;26.48;;;10.00;;
47305;SDS011;33043;48.390;11.734;2022-07-23T07:19:40;15.02;;;8.48;;
47305;SDS011;33043;48.390;11.734;2022-07-23T07:22:07;14.63;;;8.00;;
47305;SDS011;33043;48.390;11.734;2022-07-23T07:24:33;10.95;;;7.90;;
47305;SDS011;33043;48.390;11.734;2022-07-23T07:26:59;11.90;;;7.50;;
47305;SDS011;33043;48.390;11.734;2022-07-23T07:29:25;12.02;;;7.85;;
47305;SDS011;33043;48.390;11.734;2022-07-23T07:31:52;8.75;;;7.85;;
47305;SDS011;33043;48.390;11.734;2022-07-23T07:34:18;9.00;;;8.10;;
47305;SDS011;33043;48.390;11.734;2022-07-23T07:36:44;9.05;;;7.50;;
47305;SDS011;33043;48.390;11.734;2022-07-23T07:39:11;18.05;;;8.88;;
47305;SDS011;33043;48.390;11.734;2022-07-23T07:41:37;13.48;;;7.50;;
47305;SDS011;33043;48.390;11.734;2022-07-23T07:44:03;12.43;;;8.40;;
47305;SDS011;33043;48.390;11.734;2022-07-23T07:46:30;9.82;;;7.93;;
47305;SDS011;33043;48.390;11.734;2022-07-23T07:48:56;11.48;;;8.82;;
47305;SDS011;33043;48.390;11.734;2022-07-23T07:51:22;10.10;;;8.20;;
47305;SDS011;33043;48.390;11.734;2022-07-23T07:53:48;12.73;;;7.97;;
47305;SDS011;33043;48.390;11.734;2022-07-23T07:56:15;13.50;;;9.13;;
47305;SDS011;33043;48.390;11.734;2022-07-23T07:58:41;14.65;;;8.75;;
47305;SDS011;33043;48.390;11.734;2022-07-23T08:01:07;13.70;;;8.77;;
47305;SDS011;33043;48.390;11.734;2022-07-23T08:03:33;18.77;;;9.63;;
47305;SDS011;33043;48.390;11.734;2022-07-23T08:06:00;13.20;;;9.15;;
47305;SDS011;33043;48.390;11.734;2022-07-23T08:08:26;14.30;;;9.55;;
47305;SDS011;33043;48.390;11.734;2022-07-23T08:10:52;14.75;;;10.90;;
47305;SDS011;33043;48.390;11.734;2022-07-23T08:13:18;19.40;;;11.20;;
47305;SDS011;33043;48.390;11.734;2022-07-23T08:15:45;14.07;;;9.13;;
47305;SDS011;33043;48.390;11.734;2022-07-23T08:18:11;13.52;;;10.50;;
47305;SDS011;33043;48.390;11.734;2022-07-23T08:20:37;14.02;;;10.00;;
47305;SDS011;33043;48.390;11.734;2022-07-23T08:23:04;11.63;;;9.70;;
47305;SDS011;33043;48.390;11.734;2022-07-23T08:25:32;14.87;;;9.73;;
47305;SDS011;33043;48.390;11.734;2022-07-23T08:27:59;16.00;;;10.75;;
47305;SDS011;33043;48.390;11.734;2022-07-23T08:30:26;15.15;;;10.90;;
47305;SDS011;33043;48.390;11.734;2022-07-23T08:32:57;14.15;;;10.40;;
47305;SDS011;33043;48.390;11.734;2022-07-23T08:35:30;13.20;;;10.77;;
47305;SDS011;33043;48.390;11.734;2022-07-23T08:37:56;19.05;;;11.23;;
47305;SDS011;33043;48.390;11.734;2022-07-23T08:40:23;14.27;;;10.13;;
47305;SDS011;33043;48.390;11.734;2022-07-23T08:42:51;19.65;;;10.38;;
47305;SDS011;33043;48.390;11.734;2022-07-23T08:45:18;14.77;;;10.10;;
47305;SDS011;33043;48.390;11.734;2022-07-23T08:48:05;11.12;;;8.98;;
47305;SDS011;33043;48.390;11.734;2022-07-23T08:50:31;12.23;;;9.70;;
47305;SDS011;33043;48.390;11.734;2022-07-23T08:52:58;12.80;;;9.73;;
47305;SDS011;33043;48.390;11.734;2022-07-23T08:55:25;10.80;;;9.65;;
47305;SDS011;33043;48.390;11.734;2022-07-23T08:57:51;21.65;;;11.12;;
47305;SDS011;33043;48.390;11.734;2022-07-23T09:00:19;12.43;;;9.00;;
47305;SDS011;33043;48.390;11.734;2022-07-23T09:02:45;14.75;;;10.07;;
47305;SDS011;33043;48.390;11.734;2022-07-23T09:05:12;18.37;;;10.73;;
47305;SDS011;33043;48.390;11.734;2022-07-23T09:10:24;18.23;;;10.80;;
47305;SDS011;33043;48.390;11.734;2022-07-23T09:12:50;12.65;;;9.75;;
47305;SDS011;33043;48.390;11.734;2022-07-23T09:15:16;14.93;;;9.85;;
47305;SDS011;33043;48.390;11.734;2022-07-23T09:17:43;15.95;;;8.70;;
47305;SDS011;33043;48.390;11.734;2022-07-23T09:20:10;11.52;;;8.93;;
47305;SDS011;33043;48.390;11.734;2022-07-23T09:22:37;26.50;;;9.68;;
47305;SDS011;33043;48.390;11.734;2022-07-23T09:25:04;10.15;;;7.65;;
47305;SDS011;33043;48.390;11.734;2022-07-23T09:30:13;15.77;;;7.50;;
47305;SDS011;33043;48.390;11.734;2022-07-23T09:32:39;8.75;;;6.50;;
47305;SDS011;33043;48.390;11.734;2022-07-23T09:35:06;12.73;;;6.95;;
47305;SDS011;33043;48.390;11.734;2022-07-23T09:37:32;11.55;;;8.38;;
47305;SDS011;33043;48.390;11.734;2022-07-23T09:40:05;14.25;;;8.20;;
47305;SDS011;33043;48.390;11.734;2022-07-23T09:42:32;11.23;;;8.23;;
47305;SDS011;33043;48.390;11.734;2022-07-23T09:44:59;8.95;;;8.05;;
47305;SDS011;33043;48.390;11.734;2022-07-23T09:47:27;11.10;;;6.93;;
47305;SDS011;33043;48.390;11.734;2022-07-23T09:49:57;10.20;;;7.15;;
47305;SDS011;33043;48.390;11.734;2022-07-23T09:52:30;8.32;;;6.93;;
47305;SDS011;33043;48.390;11.734;2022-07-23T09:54:59;10.50;;;8.20;;
47305;SDS011;33043;48.390;11.734;2022-07-23T09:57:25;8.40;;;7.47;;
47305;SDS011;33043;48.390;11.734;2022-07-23T09:59:52;11.60;;;8.43;;
47305;SDS011;33043;48.390;11.734;2022-07-23T10:02:18;10.55;;;7.53;;
47305;SDS011;33043;48.390;11.734;2022-07-23T10:04:45;10.75;;;7.68;;
47305;SDS011;33043;48.390;11.734;2022-07-23T10:07:12;11.05;;;6.97;;
47305;SDS011;33043;48.390;11.734;2022-07-23T10:09:40;15.10;;;8.27;;
47305;SDS011;33043;48.390;11.734;2022-07-23T10:12:10;15.20;;;8.05;;
47305;SDS011;33043;48.390;11.734;2022-07-23T10:14:38;10.90;;;8.75;;
47305;SDS011;33043;48.390;11.734;2022-07-23T10:17:04;7.80;;;7.00;;
47305;SDS011;33043;48.390;11.734;2022-07-23T10:19:31;9.95;;;7.68;;
47305;SDS011;33043;48.390;11.734;2022-07-23T10:22:06;8.52;;;6.35;;
47305;SDS011;33043;48.390;11.734;2022-07-23T10:27:12;10.43;;;6.22;;
47305;SDS011;33043;48.390;11.734;2022-07-23T10:29:58;8.43;;;6.40;;
47305;SDS011;33043;48.390;11.734;2022-07-23T10:32:37;9.70;;;7.40;;
47305;SDS011;33043;48.390;11.734;2022-07-23T10:35:12;8.23;;;6.50;;
47305;SDS011;33043;48.390;11.734;2022-07-23T10:37:46;8.45;;;6.85;;
47305;SDS011;33043;48.390;11.734;2022-07-23T10:40:17;8.68;;;6.57;;
47305;SDS011;33043;48.390;11.734;2022-07-23T10:42:44;9.35;;;6.90;;
47305;SDS011;33043;48.390;11.734;2022-07-23T10:45:27;9.30;;;7.32;;
47305;SDS011;33043;48.390;11.734;2022-07-23T10:47:54;10.43;;;6.82;;
47305;SDS011;33043;48.390;11.734;2022-07-23T10:50:25;11.57;;;6.47;;
47305;SDS011;33043;48.390;11.734;2022-07-23T10:57:58;9.48;;;7.03;;
47305;SDS011;33043;48.390;11.734;2022-07-23T11:00:25;7.97;;;6.90;;
47305;SDS011;33043;48.390;11.734;2022-07-23T11:02:53;12.48;;;6.78;;
47305;SDS011;33043;48.390;11.734;2022-07-23T11:05:21;9.18;;;6.78;;
47305;SDS011;33043;48.390;11.734;2022-07-23T11:13:35;9.10;;;7.35;;
47305;SDS011;33043;48.390;11.734;2022-07-23T11:24:05;10.48;;;7.50;;
47305;SDS011;33043;48.390;11.734;2022-07-23T11:34:32;8.80;;;7.30;;
47305;SDS011;33043;48.390;11.734;2022-07-23T11:36:59;7.00;;;6.03;;
47305;SDS011;33043;48.390;11.734;2022-07-23T11:39:26;8.35;;;6.43;;
47305;SDS011;33043;48.390;11.734;2022-07-23T11:41:53;8.18;;;6.60;;
47305;SDS011;33043;48.390;11.734;2022-07-23T11:44:26;10.18;;;6.50;;
47305;SDS011;33043;48.390;11.734;2022-07-23T11:46:56;8.98;;;5.97;;
47305;SDS011;33043;48.390;11.734;2022-07-23T11:49:23;8.95;;;7.75;;
47305;SDS011;33043;48.390;11.734;2022-07-23T11:52:03;7.00;;;6.30;;
47305;SDS011;33043;48.390;11.734;2022-07-23T11:54:33;7.40;;;6.05;;
47305;SDS011;33043;48.390;11.734;2022-07-23T11:57:00;8.10;;;6.43;;
47305;SDS011;33043;48.390;11.734;2022-07-23T11:59:27;8.38;;;6.25;;
47305;SDS011;33043;48.390;11.734;2022-07-23T12:01:58;7.05;;;5.72;;
47305;SDS011;33043;48.390;11.734;2022-07-23T12:04:44;7.10;;;5.68;;
47305;SDS011;33043;48.390;11.734;2022-07-23T12:09:56;7.43;;;5.87;;
47305;SDS011;33043;48.390;11.734;2022-07-23T12:12:23;6.53;;;5.65;;
47305;SDS011;33043;48.390;11.734;2022-07-23T12:17:15;8.60;;;6.15;;
47305;SDS011;33043;48.390;11.734;2022-07-23T12:19:42;8.73;;;6.87;;
47305;SDS011;33043;48.390;11.734;2022-07-23T12:22:08;9.77;;;6.28;;
47305;SDS011;33043;48.390;11.734;2022-07-23T12:27:20;8.93;;;6.30;;
47305;SDS011;33043;48.390;11.734;2022-07-23T12:29:47;7.60;;;6.32;;
47305;SDS011;33043;48.390;11.734;2022-07-23T12:32:21;9.40;;;6.95;;
47305;SDS011;33043;48.390;11.734;2022-07-23T12:34:48;9.18;;;6.32;;
47305;SDS011;33043;48.390;11.734;2022-07-23T12:37:32;7.78;;;6.25;;
47305;SDS011;33043;48.390;11.734;2022-07-23T12:39:58;8.57;;;6.55;;
47305;SDS011;33043;48.390;11.734;2022-07-23T12:42:24;8.15;;;6.40;;
47305;SDS011;33043;48.390;11.734;2022-07-23T12:45:07;8.85;;;5.78;;
47305;SDS011;33043;48.390;11.734;2022-07-23T12:50:37;8.75;;;6.22;;
47305;SDS011;33043;48.390;11.734;2022-07-23T12:53:04;9.23;;;6.90;;
47305;SDS011;33043;48.390;11.734;2022-07-23T12:55:31;8.20;;;6.93;;
47305;SDS011;33043;48.390;11.734;2022-07-23T12:58:04;11.60;;;6.25;;
47305;SDS011;33043;48.390;11.734;2022-07-23T13:00:31;9.18;;;7.35;;
47305;SDS011;33043;48.390;11.734;2022-07-23T13:02:57;8.18;;;6.55;;
47305;SDS011;33043;48.390;11.734;2022-07-23T13:05:23;7.87;;;6.53;;
47305;SDS011;33043;48.390;11.734;2022-07-23T13:07:50;8.45;;;6.70;;
47305;SDS011;33043;48.390;11.734;2022-07-23T13:10:16;8.73;;;6.43;;
47305;SDS011;33043;48.390;11.734;2022-07-23T13:12:42;9.63;;;6.97;;
47305;SDS011;33043;48.390;11.734;2022-07-23T13:15:08;8.30;;;7.50;;
47305;SDS011;33043;48.390;11.734;2022-07-23T13:17:35;10.13;;;7.10;;
47305;SDS011;33043;48.390;11.734;2022-07-23T13:20:01;12.13;;;7.05;;
47305;SDS011;33043;48.390;11.734;2022-07-23T13:22:28;9.43;;;6.78;;
47305;SDS011;33043;48.390;11.734;2022-07-23T13:24:54;21.95;;;7.55;;
47305;SDS011;33043;48.390;11.734;2022-07-23T13:27:20;8.90;;;6.80;;
47305;SDS011;33043;48.390;11.734;2022-07-23T13:29:47;9.02;;;6.60;;
47305;SDS011;33043;48.390;11.734;2022-07-23T13:32:13;9.10;;;7.45;;
47305;SDS011;33043;48.390;11.734;2022-07-23T13:34:39;7.62;;;6.82;;
47305;SDS011;33043;48.390;11.734;2022-07-23T13:37:06;12.75;;;8.15;;
47305;SDS011;33043;48.390;11.734;2022-07-23T13:39:32;10.23;;;7.50;;
47305;SDS011;33043;48.390;11.734;2022-07-23T13:41:58;12.43;;;8.07;;
47305;SDS011;33043;48.390;11.734;2022-07-23T13:44:24;9.52;;;7.90;;
47305;SDS011;33043;48.390;11.734;2022-07-23T13:46:51;8.05;;;6.40;;
47305;SDS011;33043;48.390;11.734;2022-07-23T13:49:17;11.73;;;8.15;;
47305;SDS011;33043;48.390;11.734;2022-07-23T13:51:43;9.63;;;7.55;;
47305;SDS011;33043;48.390;11.734;2022-07-23T13:54:10;11.10;;;7.15;;
47305;SDS011;33043;48.390;11.734;2022-07-23T13:56:36;12.73;;;7.53;;
47305;SDS011;33043;48.390;11.734;2022-07-23T13:59:02;7.70;;;6.97;;
47305;SDS011;33043;48.390;11.734;2022-07-23T14:01:29;10.52;;;7.50;;
47305;SDS011;33043;48.390;11.734;2022-07-23T14:03:55;8.25;;;7.07;;
47305;SDS011;33043;48.390;11.734;2022-07-23T14:06:21;8.90;;;7.18;;
47305;SDS011;33043;48.390;11.734;2022-07-23T14:08:48;8.48;;;7.53;;
47305;SDS011;33043;48.390;11.734;2022-07-23T14:11:14;10.40;;;7.82;;
47305;SDS011;33043;48.390;11.734;2022-07-23T14:13:40;8.45;;;7.15;;
47305;SDS011;33043;48.390;11.734;2022-07-23T14:16:07;10.38;;;7.75;;
47305;SDS011;33043;48.390;11.734;2022-07-23T14:18:33;11.02;;;7.82;;
47305;SDS011;33043;48.390;11.734;2022-07-23T14:20:59;13.32;;;8.35;;
47305;SDS011;33043;48.390;11.734;2022-07-23T14:23:26;9.40;;;7.80;;
47305;SDS011;33043;48.390;11.734;2022-07-23T14:25:52;8.95;;;8.05;;
47305;SDS011;33043;48.390;11.734;2022-07-23T14:28:18;10.00;;;8.25;;
47305;SDS011;33043;48.390;11.734;2022-07-23T14:30:44;9.93;;;7.20;;
47305;SDS011;33043;48.390;11.734;2022-07-23T14:33:11;8.75;;;7.90;;
47305;SDS011;33043;48.390;11.734;2022-07-23T14:35:38;9.00;;;8.05;;
47305;SDS011;33043;48.390;11.734;2022-07-23T14:38:05;13.50;;;8.73;;
47305;SDS011;33043;48.390;11.734;2022-07-23T14:40:31;11.25;;;8.60;;
47305;SDS011;33043;48.390;11.734;2022-07-23T14:42:57;9.48;;;7.57;;
47305;SDS011;33043;48.390;11.734;2022-07-23T14:45:23;9.93;;;8.07;;
47305;SDS011;33043;48.390;11.734;2022-07-23T14:47:50;8.82;;;7.87;;
47305;SDS011;33043;48.390;11.734;2022-07-23T14:50:16;9.65;;;8.65;;
47305;SDS011;33043;48.390;11.734;2022-07-23T14:52:43;9.70;;;8.15;;
47305;SDS011;33043;48.390;11.734;2022-07-23T14:55:09;9.52;;;8.23;;
47305;SDS011;33043;48.390;11.734;2022-07-23T14:57:35;13.38;;;8.50;;
47305;SDS011;33043;48.390;11.734;2022-07-23T15:00:03;12.18;;;8.63;;
47305;SDS011;33043;48.390;11.734;2022-07-23T15:02:30;12.37;;;8.68;;
47305;SDS011;33043;48.390;11.734;2022-07-23T15:04:56;11.43;;;9.18;;
47305;SDS011;33043;48.390;11.734;2022-07-23T15:07:26;10.48;;;8.32;;
47305;SDS011;33043;48.390;11.734;2022-07-23T15:09:54;10.57;;;8.05;;
47305;SDS011;33043;48.390;11.734;2022-07-23T15:12:20;9.48;;;8.55;;
47305;SDS011;33043;48.390;11.734;2022-07-23T15:14:47;13.52;;;8.57;;
47305;SDS011;33043;48.390;11.734;2022-07-23T15:17:13;9.23;;;8.13;;
47305;SDS011;33043;48.390;11.734;2022-07-23T15:19:39;13.32;;;8.82;;
47305;SDS011;33043;48.390;11.734;2022-07-23T15:22:05;10.00;;;8.65;;
47305;SDS011;33043;48.390;11.734;2022-07-23T15:24:32;11.02;;;8.60;;
47305;SDS011;33043;48.390;11.734;2022-07-23T15:26:58;8.60;;;6.80;;
47305;SDS011;33043;48.390;11.734;2022-07-23T15:29:24;7.87;;;5.90;;
47305;SDS011;33043;48.390;11.734;2022-07-23T15:31:51;7.95;;;5.72;;
47305;SDS011;33043;48.390;11.734;2022-07-23T15:34:17;7.37;;;5.85;;
47305;SDS011;33043;48.390;11.734;2022-07-23T15:36:43;9.05;;;6.07;;
47305;SDS011;33043;48.390;11.734;2022-07-23T15:39:10;7.78;;;6.10;;
47305;SDS011;33043;48.390;11.734;2022-07-23T15:41:36;8.13;;;6.47;;
47305;SDS011;33043;48.390;11.734;2022-07-23T15:44:02;6.25;;;5.65;;
47305;SDS011;33043;48.390;11.734;2022-07-23T15:46:28;7.00;;;5.78;;
47305;SDS011;33043;48.390;11.734;2022-07-23T15:48:55;8.57;;;6.28;;
47305;SDS011;33043;48.390;11.734;2022-07-23T15:51:21;8.43;;;6.22;;
47305;SDS011;33043;48.390;11.734;2022-07-23T15:53:48;10.05;;;6.43;;
47305;SDS011;33043;48.390;11.734;2022-07-23T15:56:14;7.20;;;6.35;;
47305;SDS011;33043;48.390;11.734;2022-07-23T15:58:40;10.95;;;6.75;;
47305;SDS011;33043;48.390;11.734;2022-07-23T16:01:07;8.07;;;6.07;;
47305;SDS011;33043;48.390;11.734;2022-07-23T16:03:33;8.30;;;6.50;;
47305;SDS011;33043;48.390;11.734;2022-07-23T16:06:00;8.05;;;7.03;;
47305;SDS011;33043;48.390;11.734;2022-07-23T16:08:26;7.60;;;6.40;;
47305;SDS011;33043;48.390;11.734;2022-07-23T16:10:52;8.05;;;6.60;;
47305;SDS011;33043;48.390;11.734;2022-07-23T16:13:22;7.37;;;6.65;;
47305;SDS011;33043;48.390;11.734;2022-07-23T16:15:48;9.25;;;6.72;;
47305;SDS011;33043;48.390;11.734;2022-07-23T16:18:15;8.02;;;6.80;;
47305;SDS011;33043;48.390;11.734;2022-07-23T16:20:42;9.18;;;6.90;;
47305;SDS011;33043;48.390;11.734;2022-07-23T16:23:08;8.93;;;6.87;;
47305;SDS011;33043;48.390;11.734;2022-07-23T16:25:35;8.57;;;6.68;;
47305;SDS011;33043;48.390;11.734;2022-07-23T16:28:01;7.62;;;6.85;;
47305;SDS011;33043;48.390;11.734;2022-07-23T16:30:27;10.02;;;7.00;;
47305;SDS011;33043;48.390;11.734;2022-07-23T16:32:54;7.40;;;6.70;;
47305;SDS011;33043;48.390;11.734;2022-07-23T16:35:20;9.10;;;7.10;;
47305;SDS011;33043;48.390;11.734;2022-07-23T16:37:46;9.32;;;7.37;;
47305;SDS011;33043;48.390;11.734;2022-07-23T16:40:13;7.75;;;6.72;;
47305;SDS011;33043;48.390;11.734;2022-07-23T16:42:39;10.30;;;7.65;;
47305;SDS011;33043;48.390;11.734;2022-07-23T16:45:06;11.60;;;7.53;;
47305;SDS011;33043;48.390;11.734;2022-07-23T16:47:33;8.48;;;6.72;;
47305;SDS011;33043;48.390;11.734;2022-07-23T16:49:59;9.48;;;7.72;;
47305;SDS011;33043;48.390;11.734;2022-07-23T16:52:26;11.10;;;7.03;;
47305;SDS011;33043;48.390;11.734;2022-07-23T16:54:53;9.95;;;7.80;;
47305;SDS011;33043;48.390;11.734;2022-07-23T16:57:19;11.75;;;7.93;;
47305;SDS011;33043;48.390;11.734;2022-07-23T16:59:45;9.50;;;7.43;;
47305;SDS011;33043;48.390;11.734;2022-07-23T17:02:12;8.82;;;7.93;;
47305;SDS011;33043;48.390;11.734;2022-07-23T17:04:38;10.95;;;8.40;;
47305;SDS011;33043;48.390;11.734;2022-07-23T17:07:04;11.75;;;9.23;;
47305;SDS011;33043;48.390;11.734;2022-07-23T17:09:31;10.60;;;8.15;;
47305;SDS011;33043;48.390;11.734;2022-07-23T17:11:58;9.32;;;8.43;;
47305;SDS011;33043;48.390;11.734;2022-07-23T17:14:25;12.37;;;8.32;;
47305;SDS011;33043;48.390;11.734;2022-07-23T17:16:51;11.68;;;8.95;;
47305;SDS011;33043;48.390;11.734;2022-07-23T17:19:17;11.95;;;9.30;;
47305;SDS011;33043;48.390;11.734;2022-07-23T17:21:44;11.23;;;8.40;;
47305;SDS011;33043;48.390;11.734;2022-07-23T17:24:10;8.77;;;7.87;;
47305;SDS011;33043;48.390;11.734;2022-07-23T17:26:36;10.25;;;8.90;;
47305;SDS011;33043;48.390;11.734;2022-07-23T17:29:03;8.85;;;7.85;;
47305;SDS011;33043;48.390;11.734;2022-07-23T17:31:29;10.63;;;9.52;;
47305;SDS011;33043;48.390;11.734;2022-07-23T17:33:55;12.35;;;9.20;;
47305;SDS011;33043;48.390;11.734;2022-07-23T17:36:22;10.13;;;8.90;;
47305;SDS011;33043;48.390;11.734;2022-07-23T17:38:49;12.95;;;9.27;;
47305;SDS011;33043;48.390;11.734;2022-07-23T17:41:16;9.95;;;9.00;;
47305;SDS011;33043;48.390;11.734;2022-07-23T17:43:43;10.63;;;9.32;;
47305;SDS011;33043;48.390;11.734;2022-07-23T17:46:09;11.57;;;8.95;;
47305;SDS011;33043;48.390;11.734;2022-07-23T17:48:35;12.10;;;8.93;;
47305;SDS011;33043;48.390;11.734;2022-07-23T17:51:04;10.32;;;9.15;;
47305;SDS011;33043;48.390;11.734;2022-07-23T17:53:32;11.57;;;10.27;;
47305;SDS011;33043;48.390;11.734;2022-07-23T17:55:58;9.60;;;8.70;;
47305;SDS011;33043;48.390;11.734;2022-07-23T17:58:26;13.30;;;9.95;;
47305;SDS011;33043;48.390;11.734;2022-07-23T18:00:52;15.18;;;9.20;;
47305;SDS011;33043;48.390;11.734;2022-07-23T18:03:19;11.73;;;9.68;;
47305;SDS011;33043;48.390;11.734;2022-07-23T18:05:45;13.40;;;9.82;;
47305;SDS011;33043;48.390;11.734;2022-07-23T18:08:11;13.98;;;10.13;;
47305;SDS011;33043;48.390;11.734;2022-07-23T18:10:38;12.65;;;10.60;;
47305;SDS011;33043;48.390;11.734;2022-07-23T18:13:06;15.05;;;9.85;;
47305;SDS011;33043;48.390;11.734;2022-07-23T18:15:33;13.32;;;10.02;;
47305;SDS011;33043;48.390;11.734;2022-07-23T18:17:59;11.95;;;9.70;;
47305;SDS011;33043;48.390;11.734;2022-07-23T18:20:25;10.18;;;9.18;;
47305;SDS011;33043;48.390;11.734;2022-07-23T18:22:52;12.32;;;10.85;;
47305;SDS011;33043;48.390;11.734;2022-07-23T18:25:18;13.60;;;10.63;;
47305;SDS011;33043;48.390;11.734;2022-07-23T18:27:45;12.88;;;11.45;;
47305;SDS011;33043;48.390;11.734;2022-07-23T18:30:11;12.27;;;10.52;;
47305;SDS011;33043;48.390;11.734;2022-07-23T18:32:38;12.30;;;10.38;;
47305;SDS011;33043;48.390;11.734;2022-07-23T18:35:05;13.73;;;11.27;;
47305;SDS011;33043;48.390;11.734;2022-07-23T18:37:32;15.95;;;12.57;;
47305;SDS011;33043;48.390;11.734;2022-07-23T18:39:58;14.00;;;11.07;;
47305;SDS011;33043;48.390;11.734;2022-07-23T18:42:25;12.63;;;11.32;;
47305;SDS011;33043;48.390;11.734;2022-07-23T18:44:51;13.57;;;11.30;;
47305;SDS011;33043;48.390;11.734;2022-07-23T18:47:17;15.48;;;11.98;;
47305;SDS011;33043;48.390;11.734;2022-07-23T18:49:43;19.40;;;12.68;;
47305;SDS011;33043;48.390;11.734;2022-07-23T18:52:10;17.67;;;12.75;;
47305;SDS011;33043;48.390;11.734;2022-07-23T18:54:36;12.98;;;11.52;;
47305;SDS011;33043;48.390;11.734;2022-07-23T18:57:02;13.73;;;11.00;;
47305;SDS011;33043;48.390;11.734;2022-07-23T18:59:29;12.55;;;11.25;;
47305;SDS011;33043;48.390;11.734;2022-07-23T19:01:55;15.05;;;12.40;;
47305;SDS011;33043;48.390;11.734;2022-07-23T19:04:21;12.82;;;11.43;;
47305;SDS011;33043;48.390;11.734;2022-07-23T19:06:47;14.77;;;12.88;;
47305;SDS011;33043;48.390;11.734;2022-07-23T19:09:14;15.93;;;12.10;;